Burton, Texas
Current Conditions -  °F | °C
As of 11:35 AM on Thursday 23 Oct 2014 (Local Time) from K11R Reporting Station
Clear Clear  
Wind Chill: 24°   Ceiling: Unl
Heat Index: 24°   Visibility: 10mi
Dew Point: 12°   Wind: 0mph
Humidity: 47%   Direction: NA
Pressure: 30.16"   Gusts: NA
Location:  30.18°N, 96.6°W
Report Text: K11R 231635Z AUTO 00000KT 10SM CLR 24/12 A3016 RMK AO2 T02360118
Loading
Personal Weather Stations






























Interactive Weather Map
Tropical Storm Tracking
New forecast layout! Learn more

10-Day Weather Forecast

Advertisements
Track Severe Weather on mobile